Time;durP1;ratioP1;P1;durP2;ratioP2;P2;SDS_P1;SDS_P2;PMS_P1;PMS_P2;Temp;Humidity;BMP_temperature;BMP_pressure;BME280_temperature;BME280_humidity;BME280_pressure;Samples;Min_cycle;Max_cycle;Signal;HPM_P1;HPM_P2
2023/03/07 00:01:25;;;;;;;12.53;11.23;;;6.20;71.90;;;;;;911703;153;27385;-83
2023/03/07 00:03:52;;;;;;;15.07;12.37;;;6.20;71.80;;;;;;908856;153;27434;-82
2023/03/07 00:06:19;;;;;;;15.23;11.67;;;6.20;71.70;;;;;;913254;152;27381;-82
2023/03/07 00:08:45;;;;;;;16.27;12.47;;;6.30;71.80;;;;;;909428;153;27497;-83
2023/03/07 00:11:12;;;;;;;16.83;13.30;;;6.30;71.70;;;;;;911384;152;27404;-82
2023/03/07 00:13:38;;;;;;;16.63;12.93;;;6.30;71.80;;;;;;911006;153;27363;-83
2023/03/07 00:16:05;;;;;;;15.70;12.83;;;6.40;71.80;;;;;;912498;153;27354;-83
2023/03/07 00:18:32;;;;;;;15.07;12.50;;;6.40;72.60;;;;;;917893;153;27454;-82
2023/03/07 00:21:01;;;;;;;14.03;11.43;;;6.40;71.80;;;;;;911434;152;27432;-82
2023/03/07 00:23:28;;;;;;;17.40;13.30;;;6.50;72.00;;;;;;926120;151;27372;-83
2023/03/07 00:26:00;;;;;;;16.90;13.30;;;6.50;72.00;;;;;;909372;152;27471;-83
2023/03/07 00:28:27;;;;;;;17.23;13.10;;;6.50;72.10;;;;;;913056;153;27438;-82
2023/03/07 00:30:53;;;;;;;17.17;13.23;;;6.50;72.20;;;;;;917093;153;27515;-82
2023/03/07 00:33:20;;;;;;;16.53;14.03;;;6.50;72.60;;;;;;926493;151;27513;-82
2023/03/07 00:35:55;;;;;;;16.93;12.97;;;6.40;72.60;;;;;;924723;151;27389;-83
2023/03/07 00:38:22;;;;;;;20.03;13.93;;;6.40;72.80;;;;;;926871;151;27332;-83
2023/03/07 00:40:48;;;;;;;16.53;12.77;;;6.40;73.10;;;;;;926735;151;27385;-82
2023/03/07 00:43:15;;;;;;;17.17;12.20;;;6.30;72.80;;;;;;926325;151;27451;-83
2023/03/07 00:45:42;;;;;;;16.60;12.57;;;6.30;72.70;;;;;;926743;151;27387;-83
2023/03/07 00:48:08;;;;;;;16.17;12.47;;;6.30;72.70;;;;;;924611;151;27370;-83
2023/03/07 00:50:35;;;;;;;17.37;13.17;;;6.30;72.90;;;;;;926608;151;27364;-82
2023/03/07 00:53:01;;;;;;;15.77;12.70;;;6.20;73.10;;;;;;925459;151;27373;-82
2023/03/07 00:55:28;;;;;;;19.23;13.13;;;6.20;73.30;;;;;;923776;151;27376;-82
2023/03/07 00:57:55;;;;;;;18.27;13.87;;;6.20;73.40;;;;;;927818;151;27388;-82
2023/03/07 01:00:21;;;;;;;18.00;13.63;;;6.20;73.90;;;;;;925924;151;27394;-82
2023/03/07 01:02:48;;;;;;;15.03;12.43;;;6.20;73.90;;;;;;923913;151;27514;-83
2023/03/07 01:05:14;;;;;;;15.03;12.97;;;6.20;73.70;;;;;;925703;151;27366;-83
2023/03/07 01:07:41;;;;;;;16.90;12.77;;;6.20;73.90;;;;;;924107;151;27336;-83
2023/03/07 01:10:08;;;;;;;17.70;12.77;;;6.10;73.90;;;;;;923124;151;27470;-83
2023/03/07 01:12:34;;;;;;;18.00;13.40;;;6.10;74.10;;;;;;923509;151;27379;-82
2023/03/07 01:15:04;;;;;;;19.57;13.67;;;6.10;74.20;;;;;;923612;151;27528;-82
2023/03/07 01:17:27;;;;;;;16.07;12.67;;;6.10;74.30;;;;;;922253;151;27319;-80
2023/03/07 01:19:54;;;;;;;17.17;13.40;;;6.10;74.60;;;;;;922716;151;27438;-79
2023/03/07 01:22:20;;;;;;;16.20;13.40;;;6.10;74.80;;;;;;923046;151;27384;-82
2023/03/07 01:24:47;;;;;;;16.83;12.67;;;6.00;74.70;;;;;;922748;151;27415;-82
2023/03/07 01:27:14;;;;;;;14.90;12.37;;;6.00;74.90;;;;;;923989;151;27323;-81
2023/03/07 01:29:40;;;;;;;16.60;12.33;;;6.00;74.70;;;;;;923815;151;27309;-80
2023/03/07 01:32:07;;;;;;;16.60;12.43;;;6.00;74.80;;;;;;917399;150;27385;-81
2023/03/07 01:34:33;;;;;;;17.47;12.70;;;5.90;75.20;;;;;;904218;153;27534;-80
2023/03/07 01:37:00;;;;;;;14.73;11.17;;;5.90;75.20;;;;;;904377;154;27335;-81
2023/03/07 01:39:27;;;;;;;16.07;12.33;;;5.90;75.30;;;;;;919781;150;27480;-81
2023/03/07 01:41:53;;;;;;;14.77;11.37;;;5.90;75.80;;;;;;904604;153;27390;-81
2023/03/07 01:44:20;;;;;;;15.40;12.27;;;5.80;75.90;;;;;;906298;154;27547;-81
2023/03/07 01:46:46;;;;;;;14.43;11.43;;;5.80;75.90;;;;;;907687;154;28028;-81
2023/03/07 01:49:18;;;;;;;16.33;11.80;;;5.70;75.80;;;;;;917830;150;27320;-80
2023/03/07 01:51:45;;;;;;;16.03;10.97;;;5.70;75.90;;;;;;918595;150;27461;-81
2023/03/07 01:54:12;;;;;;;16.43;11.63;;;5.70;76.10;;;;;;911231;154;28340;-81
2023/03/07 01:56:38;;;;;;;16.47;11.80;;;5.60;76.30;;;;;;905057;153;27387;-81
2023/03/07 01:59:05;;;;;;;16.87;12.17;;;5.60;76.50;;;;;;920557;151;27479;-81
2023/03/07 02:01:31;;;;;;;15.00;11.30;;;5.60;76.90;;;;;;919286;150;27411;-81
2023/03/07 02:04:00;;;;;;;14.00;11.30;;;5.60;77.10;;;;;;919381;150;27439;-81
2023/03/07 02:06:27;;;;;;;15.07;11.50;;;5.50;77.10;;;;;;900832;153;27513;-81
2023/03/07 02:08:54;;;;;;;15.13;12.33;;;5.50;77.00;;;;;;918407;150;27494;-81
2023/03/07 02:11:20;;;;;;;15.07;12.77;;;5.50;77.10;;;;;;905022;154;27405;-82
2023/03/07 02:13:47;;;;;;;17.30;12.13;;;5.50;77.10;;;;;;919500;150;27400;-81
2023/03/07 02:16:13;;;;;;;15.60;11.30;;;5.40;77.30;;;;;;904429;153;27434;-81
2023/03/07 02:18:40;;;;;;;14.63;11.37;;;5.40;77.40;;;;;;901769;153;27422;-82
2023/03/07 02:21:11;;;;;;;14.43;11.13;;;5.40;77.70;;;;;;904345;153;27390;-81
2023/03/07 02:23:54;;;;;;;13.33;11.07;;;5.40;78.00;;;;;;914518;154;27421;-82
2023/03/07 02:26:30;;;;;;;18.77;12.17;;;5.40;78.20;;;;;;904904;153;27446;-81
2023/03/07 02:28:57;;;;;;;14.87;11.30;;;5.30;78.10;;;;;;905188;154;27459;-82
2023/03/07 02:31:23;;;;;;;17.30;12.90;;;5.30;78.20;;;;;;903743;153;27379;-82
2023/03/07 02:33:50;;;;;;;16.43;11.80;;;5.30;78.50;;;;;;938937;148;28167;-81
2023/03/07 02:36:19;;;;;;;13.97;11.37;;;5.30;78.60;;;;;;926280;151;27398;-82
2023/03/07 02:38:46;;;;;;;13.53;10.20;;;5.30;78.50;;;;;;925713;151;28157;-82
2023/03/07 02:41:12;;;;;;;17.77;11.60;;;5.30;78.80;;;;;;904859;154;27389;-82
2023/03/07 02:43:39;;;;;;;16.57;12.20;;;5.30;78.60;;;;;;916957;152;29359;-82
2023/03/07 02:46:06;;;;;;;16.80;12.77;;;5.30;79.20;;;;;;918132;152;27391;-82
2023/03/07 02:48:32;;;;;;;17.00;12.40;;;5.30;79.00;;;;;;918430;152;27404;-82
2023/03/07 02:50:59;;;;;;;13.83;10.83;;;5.20;78.90;;;;;;902182;153;27382;-81
2023/03/07 02:53:25;;;;;;;15.50;12.03;;;5.20;79.00;;;;;;903590;154;27353;-82
2023/03/07 02:55:52;;;;;;;15.93;11.70;;;5.30;79.10;;;;;;904192;153;27437;-81
2023/03/07 02:58:18;;;;;;;15.00;12.10;;;5.20;79.10;;;;;;919637;151;27404;-81
2023/03/07 03:00:45;;;;;;;13.97;11.17;;;5.30;79.10;;;;;;905340;153;27409;-81
2023/03/07 03:03:12;;;;;;;16.87;12.63;;;5.30;79.20;;;;;;921787;152;27496;-81
2023/03/07 03:05:38;;;;;;;13.97;11.10;;;5.20;79.20;;;;;;947071;147;27427;-81
2023/03/07 03:08:05;;;;;;;15.93;12.47;;;5.20;79.20;;;;;;946489;147;27424;-81
2023/03/07 03:10:31;;;;;;;16.77;12.93;;;5.20;79.40;;;;;;945751;147;27387;-81
2023/03/07 03:12:58;;;;;;;15.57;12.23;;;5.30;78.80;;;;;;948573;147;27329;-81
2023/03/07 03:15:25;;;;;;;13.90;11.13;;;5.20;79.60;;;;;;948280;147;27709;-82
2023/03/07 03:17:51;;;;;;;13.00;10.63;;;5.20;79.60;;;;;;948077;147;27365;-81
2023/03/07 03:20:18;;;;;;;15.17;11.47;;;5.20;79.60;;;;;;945418;147;27403;-81
2023/03/07 03:22:44;;;;;;;14.07;11.37;;;5.20;80.00;;;;;;946086;147;27331;-81
2023/03/07 03:25:11;;;;;;;15.27;12.67;;;5.20;80.10;;;;;;948349;147;27431;-81
2023/03/07 03:27:38;;;;;;;13.10;10.80;;;5.20;80.10;;;;;;948140;147;27428;-81
2023/03/07 03:30:07;;;;;;;15.83;11.23;;;5.30;80.20;;;;;;948067;147;27383;-81
2023/03/07 03:32:34;;;;;;;15.10;10.87;;;5.30;80.20;;;;;;949640;147;27367;-82
2023/03/07 03:35:00;;;;;;;14.20;11.47;;;5.30;80.20;;;;;;946988;147;27337;-81
2023/03/07 03:37:27;;;;;;;16.40;11.53;;;5.30;80.20;;;;;;946955;147;27290;-81
2023/03/07 03:39:53;;;;;;;15.50;11.97;;;5.30;80.30;;;;;;946098;147;27363;-75
2023/03/07 03:42:20;;;;;;;13.23;10.27;;;5.30;80.50;;;;;;947628;147;27350;-75
2023/03/07 03:44:47;;;;;;;14.37;10.77;;;5.30;80.50;;;;;;947051;147;27308;-75
2023/03/07 03:47:13;;;;;;;13.90;10.37;;;5.30;80.70;;;;;;947781;147;27662;-75
2023/03/07 03:49:40;;;;;;;15.50;10.80;;;5.30;80.40;;;;;;947267;147;27842;-75
2023/03/07 03:52:06;;;;;;;13.40;10.30;;;5.30;80.70;;;;;;947910;147;27441;-75
2023/03/07 03:54:33;;;;;;;14.07;10.90;;;5.40;80.70;;;;;;946539;147;28053;-75
2023/03/07 03:57:00;;;;;;;13.53;10.97;;;5.40;80.80;;;;;;949525;147;27315;-75
2023/03/07 03:59:26;;;;;;;13.57;10.27;;;5.40;81.00;;;;;;947219;147;27442;-75
2023/03/07 04:01:53;;;;;;;13.57;10.57;;;5.40;80.70;;;;;;945311;147;27424;-75
2023/03/07 04:04:19;;;;;;;12.27;10.37;;;5.40;80.80;;;;;;939414;148;27813;-75
2023/03/07 04:06:47;;;;;;;11.13;9.47;;;5.40;81.10;;;;;;941754;148;27344;-75
2023/03/07 04:09:12;;;;;;;11.17;9.73;;;5.40;81.30;;;;;;938930;148;27389;-75
2023/03/07 04:11:39;;;;;;;11.17;9.47;;;5.40;81.40;;;;;;940171;148;27427;-75
2023/03/07 04:14:06;;;;;;;11.40;9.10;;;5.40;81.30;;;;;;940371;148;27386;-75
2023/03/07 04:16:32;;;;;;;11.80;9.57;;;5.40;81.70;;;;;;941282;148;28050;-75
2023/03/07 04:18:59;;;;;;;12.03;9.87;;;5.50;82.10;;;;;;929358;150;27342;-75
2023/03/07 04:21:25;;;;;;;12.17;9.97;;;5.50;81.90;;;;;;911641;153;27344;-75
2023/03/07 04:23:54;;;;;;;11.17;8.93;;;5.50;81.90;;;;;;907436;153;27429;-75
2023/03/07 04:26:19;;;;;;;10.60;9.13;;;5.50;82.40;;;;;;909363;153;27414;-75
2023/03/07 04:28:45;;;;;;;12.10;8.93;;;5.60;82.40;;;;;;908138;153;27488;-75
2023/03/07 04:31:12;;;;;;;10.47;9.00;;;5.60;82.20;;;;;;909931;153;27400;-75
2023/03/07 04:33:38;;;;;;;11.47;8.97;;;5.60;82.30;;;;;;926945;151;27374;-75
2023/03/07 04:36:05;;;;;;;10.30;9.03;;;5.60;82.70;;;;;;909180;153;27429;-75
2023/03/07 04:38:32;;;;;;;11.83;9.57;;;5.70;82.80;;;;;;924861;151;27519;-75
2023/03/07 04:40:58;;;;;;;11.53;9.33;;;5.70;83.20;;;;;;928739;150;27342;-75
2023/03/07 04:43:25;;;;;;;11.57;9.63;;;5.70;82.80;;;;;;927389;151;27364;-74
2023/03/07 04:45:51;;;;;;;11.00;9.27;;;5.80;82.70;;;;;;909831;153;27472;-75
2023/03/07 04:48:18;;;;;;;11.03;9.23;;;5.80;82.80;;;;;;909566;153;27417;-75
2023/03/07 04:50:44;;;;;;;11.83;9.13;;;5.80;82.50;;;;;;918795;153;27915;-75
2023/03/07 04:53:11;;;;;;;11.03;9.23;;;5.90;82.80;;;;;;908417;153;27537;-74
2023/03/07 04:55:38;;;;;;;11.33;9.60;;;5.90;82.70;;;;;;927599;150;27475;-75
2023/03/07 04:58:04;;;;;;;10.53;8.80;;;5.90;82.90;;;;;;911317;153;27489;-75
2023/03/07 05:00:31;;;;;;;10.03;9.03;;;5.90;82.70;;;;;;927119;151;27423;-75
2023/03/07 05:03:00;;;;;;;12.93;9.83;;;5.90;82.90;;;;;;927505;150;27393;-75
2023/03/07 05:05:24;;;;;;;11.30;9.53;;;6.00;82.80;;;;;;927579;150;27963;-74
2023/03/07 05:07:51;;;;;;;9.90;8.77;;;6.00;83.00;;;;;;913567;153;27360;-75
2023/03/07 05:10:17;;;;;;;10.43;8.70;;;6.00;82.70;;;;;;915322;152;27509;-75
2023/03/07 05:12:44;;;;;;;11.20;9.40;;;6.00;82.70;;;;;;929696;150;27692;-75
2023/03/07 05:15:10;;;;;;;11.37;9.83;;;6.10;82.80;;;;;;915042;153;27494;-75
2023/03/07 05:17:37;;;;;;;11.47;10.10;;;6.00;82.80;;;;;;930529;149;27370;-75
2023/03/07 05:20:04;;;;;;;11.23;9.60;;;6.10;82.70;;;;;;911572;153;27416;-75
2023/03/07 05:22:30;;;;;;;11.53;9.90;;;6.10;82.80;;;;;;915028;152;28296;-75
2023/03/07 05:24:57;;;;;;;11.50;9.80;;;6.10;82.70;;;;;;930371;150;27315;-75
2023/03/07 05:27:23;;;;;;;12.33;9.67;;;6.10;82.60;;;;;;920291;151;27948;-75
2023/03/07 05:29:50;;;;;;;12.03;9.50;;;6.10;82.70;;;;;;928445;150;27330;-74
2023/03/07 05:32:16;;;;;;;10.70;9.50;;;6.10;82.70;;;;;;914015;153;27480;-75
2023/03/07 05:34:45;;;;;;;11.90;9.80;;;6.10;82.50;;;;;;913383;153;27406;-75
2023/03/07 05:37:10;;;;;;;12.57;10.43;;;6.10;82.60;;;;;;929432;150;27421;-75
2023/03/07 05:39:36;;;;;;;11.53;10.00;;;6.10;82.70;;;;;;930152;149;27383;-75
2023/03/07 05:42:03;;;;;;;12.60;9.43;;;6.10;82.80;;;;;;912171;153;27432;-75
2023/03/07 05:44:29;;;;;;;11.37;10.10;;;6.10;82.60;;;;;;911831;153;27971;-75
2023/03/07 05:46:56;;;;;;;11.47;10.00;;;6.10;82.90;;;;;;927000;149;27365;-75
2023/03/07 05:49:23;;;;;;;11.87;10.13;;;6.10;82.70;;;;;;914408;153;27905;-75
2023/03/07 05:51:49;;;;;;;13.43;10.40;;;6.10;82.80;;;;;;916241;153;27346;-75
2023/03/07 05:54:16;;;;;;;11.40;9.70;;;6.10;82.80;;;;;;921650;153;27391;-75
2023/03/07 05:56:42;;;;;;;11.83;9.47;;;6.10;82.80;;;;;;914644;152;28117;-75
2023/03/07 05:59:11;;;;;;;10.80;9.50;;;6.10;82.50;;;;;;928059;150;27461;-75
2023/03/07 06:01:35;;;;;;;10.97;9.67;;;6.20;82.80;;;;;;914256;153;27369;-75
2023/03/07 06:04:02;;;;;;;14.33;10.73;;;6.20;82.90;;;;;;910371;153;27470;-75
2023/03/07 06:06:29;;;;;;;11.10;9.87;;;6.20;83.10;;;;;;908605;152;27436;-75
2023/03/07 06:08:55;;;;;;;11.83;8.90;;;6.20;83.00;;;;;;924270;153;27416;-75
2023/03/07 06:11:22;;;;;;;10.83;9.73;;;6.20;82.80;;;;;;926488;150;27358;-75
2023/03/07 06:13:48;;;;;;;12.17;9.77;;;6.20;82.80;;;;;;927800;150;27428;-75
2023/03/07 06:16:15;;;;;;;10.60;9.50;;;6.20;82.80;;;;;;929799;150;27413;-75
2023/03/07 06:18:42;;;;;;;11.83;9.53;;;6.20;82.80;;;;;;927561;150;27358;-75
2023/03/07 06:21:08;;;;;;;12.30;9.83;;;6.20;82.70;;;;;;927244;150;27382;-75
2023/03/07 06:23:35;;;;;;;12.03;9.83;;;6.20;82.80;;;;;;927744;150;27368;-75
2023/03/07 06:26:01;;;;;;;12.97;10.00;;;6.30;82.80;;;;;;927066;150;27395;-75
2023/03/07 06:28:28;;;;;;;11.30;9.97;;;6.30;82.90;;;;;;926751;150;28814;-75
2023/03/07 06:30:54;;;;;;;12.37;10.13;;;6.30;82.80;;;;;;931666;150;27274;-75
2023/03/07 06:33:21;;;;;;;13.17;11.27;;;6.30;82.80;;;;;;927044;150;27418;-75
2023/03/07 06:35:48;;;;;;;13.17;10.60;;;6.30;82.70;;;;;;926802;150;27399;-75
2023/03/07 06:38:14;;;;;;;11.90;10.33;;;6.30;82.60;;;;;;908524;153;27416;-75
2023/03/07 06:40:41;;;;;;;11.73;9.83;;;6.30;82.60;;;;;;926765;150;27355;-75
2023/03/07 06:43:07;;;;;;;11.97;9.70;;;6.30;82.70;;;;;;908789;153;27501;-75
2023/03/07 06:45:34;;;;;;;12.23;10.07;;;6.30;82.60;;;;;;924802;150;27481;-75
2023/03/07 06:48:01;;;;;;;14.23;9.97;;;6.40;82.60;;;;;;926489;151;27517;-75
2023/03/07 06:50:27;;;;;;;12.73;11.03;;;6.40;82.70;;;;;;907369;152;27879;-75
2023/03/07 06:52:54;;;;;;;11.33;10.03;;;6.40;82.70;;;;;;908529;154;27508;-75
2023/03/07 06:55:20;;;;;;;10.53;9.43;;;6.40;82.80;;;;;;924829;150;27935;-75
2023/03/07 06:57:47;;;;;;;11.93;10.20;;;6.40;82.70;;;;;;924603;151;27479;-75
2023/03/07 07:00:14;;;;;;;13.10;10.00;;;6.40;82.70;;;;;;909488;152;28090;-75
2023/03/07 07:02:40;;;;;;;12.87;9.93;;;6.40;82.70;;;;;;926111;150;27368;-76
2023/03/07 07:05:07;;;;;;;11.87;9.60;;;6.50;82.60;;;;;;921339;150;27398;-75
2023/03/07 07:07:33;;;;;;;11.10;9.53;;;6.50;82.50;;;;;;919293;150;27357;-76
2023/03/07 07:10:00;;;;;;;12.90;10.27;;;6.50;82.50;;;;;;918697;152;27524;-75
2023/03/07 07:12:27;;;;;;;10.70;9.33;;;6.50;82.50;;;;;;901985;155;27485;-76
2023/03/07 07:14:53;;;;;;;12.60;9.53;;;6.60;82.60;;;;;;904261;153;27812;-76
2023/03/07 07:17:20;;;;;;;10.70;8.97;;;6.60;82.60;;;;;;940717;148;27854;-77
2023/03/07 07:19:46;;;;;;;11.30;8.90;;;6.60;82.60;;;;;;905528;154;27404;-76
2023/03/07 07:22:14;;;;;;;11.40;9.37;;;6.60;82.50;;;;;;906256;153;27845;-75
2023/03/07 07:24:40;;;;;;;11.10;9.87;;;6.70;82.70;;;;;;920431;151;27942;-76
2023/03/07 07:27:06;;;;;;;11.40;9.00;;;6.80;83.40;;;;;;924331;151;27447;-75
2023/03/07 07:29:33;;;;;;;10.50;8.80;;;6.80;82.60;;;;;;938978;148;27358;-74
2023/03/07 07:31:59;;;;;;;9.90;8.63;;;6.80;82.50;;;;;;926069;151;27904;-75
2023/03/07 07:34:26;;;;;;;11.73;8.97;;;6.90;82.60;;;;;;922425;151;27280;-74
2023/03/07 07:36:52;;;;;;;11.07;9.27;;;6.90;82.50;;;;;;939437;148;27313;-75
2023/03/07 07:39:20;;;;;;;9.97;8.67;;;7.00;82.30;;;;;;923826;151;27454;-75
2023/03/07 07:41:46;;;;;;;8.90;7.90;;;7.00;82.30;;;;;;921524;151;27432;-74
2023/03/07 07:44:12;;;;;;;11.07;9.53;;;7.10;82.10;;;;;;905735;153;27370;-74
2023/03/07 07:46:39;;;;;;;11.07;8.80;;;7.10;82.10;;;;;;903434;155;27379;-74
2023/03/07 07:49:05;;;;;;;9.80;8.80;;;7.20;82.10;;;;;;939541;148;27309;-75
2023/03/07 07:51:32;;;;;;;11.27;9.33;;;7.20;82.10;;;;;;925339;151;27408;-74
2023/03/07 07:53:59;;;;;;;10.93;9.77;;;7.30;81.80;;;;;;924224;151;27395;-74
2023/03/07 07:56:25;;;;;;;10.60;9.23;;;7.40;81.80;;;;;;940432;148;27306;-74
2023/03/07 07:58:52;;;;;;;9.90;8.60;;;7.40;81.50;;;;;;939019;148;27361;-75
2023/03/07 08:01:18;;;;;;;10.70;9.10;;;7.40;81.20;;;;;;904188;153;27363;-75
2023/03/07 08:03:45;;;;;;;12.20;9.13;;;7.50;81.30;;;;;;907100;153;27445;-75
2023/03/07 08:06:12;;;;;;;9.60;8.60;;;7.60;81.40;;;;;;902069;153;27427;-74
2023/03/07 08:08:38;;;;;;;10.53;8.87;;;7.60;81.40;;;;;;916010;152;27377;-75
2023/03/07 08:11:05;;;;;;;13.00;9.33;;;7.70;81.40;;;;;;902516;153;27366;-74
2023/03/07 08:13:31;;;;;;;11.23;8.30;;;7.80;81.50;;;;;;902336;153;27439;-74
2023/03/07 08:15:58;;;;;;;10.07;8.47;;;7.90;81.50;;;;;;919871;151;27398;-75
2023/03/07 08:18:24;;;;;;;11.13;8.70;;;8.00;81.50;;;;;;924561;151;27363;-75
2023/03/07 08:20:51;;;;;;;9.87;8.57;;;8.20;81.40;;;;;;939091;148;27318;-75
2023/03/07 08:23:18;;;;;;;9.53;8.23;;;8.30;81.30;;;;;;901510;155;27416;-75
2023/03/07 08:25:44;;;;;;;10.00;8.90;;;8.40;80.70;;;;;;902860;153;27414;-74
2023/03/07 08:28:11;;;;;;;9.50;8.17;;;8.50;80.20;;;;;;918876;150;27369;-74
2023/03/07 08:30:37;;;;;;;10.03;9.03;;;8.60;80.00;;;;;;917550;152;27381;-75
2023/03/07 08:33:04;;;;;;;12.63;9.90;;;8.80;79.90;;;;;;903502;153;27393;-74
2023/03/07 08:35:31;;;;;;;9.47;8.17;;;8.90;79.20;;;;;;904444;154;27425;-75
2023/03/07 08:37:58;;;;;;;10.57;8.97;;;9.10;79.00;;;;;;901390;155;27439;-74
2023/03/07 08:40:25;;;;;;;9.40;8.40;;;9.20;78.60;;;;;;919034;152;27438;-75
2023/03/07 08:42:50;;;;;;;10.13;8.47;;;9.30;78.20;;;;;;918761;152;27459;-74
2023/03/07 08:45:17;;;;;;;8.80;7.73;;;9.40;78.80;;;;;;901507;155;27933;-75
2023/03/07 08:47:43;;;;;;;9.30;8.33;;;9.60;78.10;;;;;;901870;155;27417;-74
2023/03/07 08:50:10;;;;;;;9.30;8.30;;;9.80;77.90;;;;;;911383;153;27302;-75
2023/03/07 08:52:37;;;;;;;9.57;7.87;;;10.10;78.10;;;;;;905570;154;27393;-74
2023/03/07 08:55:03;;;;;;;7.83;7.00;;;10.40;79.10;;;;;;901927;154;27379;-75
2023/03/07 08:57:30;;;;;;;9.07;7.67;;;10.70;78.60;;;;;;911484;154;27871;-75
2023/03/07 08:59:57;;;;;;;9.33;7.73;;;11.10;77.80;;;;;;904018;154;27425;-75
2023/03/07 09:02:23;;;;;;;9.60;8.20;;;11.40;76.40;;;;;;940935;148;27337;-75
2023/03/07 09:04:50;;;;;;;8.30;7.37;;;11.70;74.70;;;;;;912627;153;27349;-75
2023/03/07 09:07:18;;;;;;;10.50;8.00;;;11.90;74.20;;;;;;910165;153;27503;-75
2023/03/07 09:09:43;;;;;;;8.00;7.20;;;12.00;72.90;;;;;;926982;151;27499;-75
2023/03/07 09:12:10;;;;;;;8.77;7.53;;;12.10;72.20;;;;;;926249;151;27658;-75
2023/03/07 09:14:36;;;;;;;8.90;8.00;;;12.10;72.00;;;;;;923989;151;27308;-74
2023/03/07 09:17:03;;;;;;;8.13;7.10;;;12.10;71.40;;;;;;910084;153;27330;-75
2023/03/07 09:19:29;;;;;;;10.63;8.23;;;12.10;71.40;;;;;;925683;151;27480;-75
2023/03/07 09:21:56;;;;;;;9.73;8.17;;;12.10;71.00;;;;;;929711;150;28054;-75
2023/03/07 09:24:23;;;;;;;8.80;7.40;;;12.00;70.00;;;;;;927869;150;27451;-74
2023/03/07 09:26:49;;;;;;;9.10;7.10;;;12.00;70.10;;;;;;912024;153;27357;-75
2023/03/07 09:29:16;;;;;;;7.07;6.37;;;12.00;70.10;;;;;;910609;153;27865;-75
2023/03/07 09:31:43;;;;;;;9.17;7.80;;;12.00;70.00;;;;;;926734;151;27366;-74
2023/03/07 09:34:09;;;;;;;7.50;6.80;;;12.00;69.50;;;;;;927163;151;27356;-75
2023/03/07 09:36:36;;;;;;;7.73;6.93;;;12.00;68.80;;;;;;926235;151;27874;-75
2023/03/07 09:39:02;;;;;;;8.83;7.90;;;11.90;68.00;;;;;;910515;153;27434;-75
2023/03/07 09:41:40;;;;;;;8.23;7.43;;;11.90;68.30;;;;;;924845;151;27403;-75
2023/03/07 09:44:10;;;;;;;8.83;7.00;;;11.80;68.80;;;;;;909001;153;27381;-74
2023/03/07 09:46:45;;;;;;;8.13;6.67;;;11.80;68.60;;;;;;911325;153;27396;-74
2023/03/07 09:49:20;;;;;;;7.87;7.07;;;11.80;68.40;;;;;;908793;153;27373;-75
2023/03/07 09:51:50;;;;;;;8.27;6.57;;;11.80;69.10;;;;;;909268;153;28110;-75
2023/03/07 09:54:38;;;;;;;7.47;6.73;;;11.80;69.60;;;;;;923197;151;27364;-75
2023/03/07 09:57:05;;;;;;;9.50;7.83;;;11.90;69.90;;;;;;909570;153;27900;-75
2023/03/07 09:59:46;;;;;;;8.03;6.77;;;12.10;69.80;;;;;;925846;151;27374;-75
2023/03/07 10:02:31;;;;;;;7.43;6.70;;;12.20;68.50;;;;;;907030;153;27963;-75
2023/03/07 10:05:17;;;;;;;6.53;5.93;;;12.40;70.30;;;;;;925625;151;27378;-75
2023/03/07 10:07:43;;;;;;;8.03;6.57;;;12.70;70.40;;;;;;910351;153;27452;-74
2023/03/07 10:10:22;;;;;;;6.30;5.70;;;13.00;69.60;;;;;;911193;153;27351;-74
2023/03/07 10:13:10;;;;;;;8.47;5.47;;;13.20;68.50;;;;;;918624;153;27386;-75
2023/03/07 10:15:37;;;;;;;6.13;5.50;;;13.50;68.20;;;;;;909078;153;27986;-75
2023/03/07 10:18:31;;;;;;;5.80;4.97;;;13.70;67.80;;;;;;922374;151;27383;-75
2023/03/07 10:21:18;;;;;;;7.12;5.70;;;13.80;67.30;;;;;;924830;151;27786;-75
2023/03/07 10:24:00;;;;;;;7.65;5.55;;;14.00;66.00;;;;;;924379;151;27414;-75
2023/03/07 10:26:32;;;;;;;5.70;5.08;;;14.10;65.50;;;;;;925373;151;27401;-75
2023/03/07 10:28:58;;;;;;;5.93;5.43;;;14.20;65.10;;;;;;925684;151;27369;-75
2023/03/07 10:31:25;;;;;;;5.40;4.87;;;14.20;64.30;;;;;;924625;151;27378;-75
2023/03/07 10:33:52;;;;;;;5.33;4.80;;;14.20;63.80;;;;;;925050;151;27473;-75
2023/03/07 10:36:21;;;;;;;5.25;4.55;;;14.20;63.50;;;;;;924412;151;27381;-75
2023/03/07 10:39:00;;;;;;;5.70;5.20;;;14.20;63.60;;;;;;926031;151;27378;-75
2023/03/07 10:41:26;;;;;;;5.20;4.70;;;14.10;62.50;;;;;;913528;151;27414;-75
2023/03/07 10:43:53;;;;;;;5.00;4.47;;;14.00;62.40;;;;;;924092;151;27379;-75
2023/03/07 10:46:22;;;;;;;5.53;5.03;;;13.90;62.40;;;;;;925528;151;27366;-75
2023/03/07 10:48:49;;;;;;;5.03;4.53;;;13.80;62.10;;;;;;923029;151;27356;-74
2023/03/07 10:51:52;;;;;;;5.37;4.87;;;13.80;60.50;;;;;;925715;151;27408;-75
2023/03/07 10:54:21;;;;;;;5.07;4.57;;;13.70;59.90;;;;;;924350;151;27812;-75
2023/03/07 10:57:09;;;;;;;5.77;4.90;;;13.60;62.10;;;;;;924094;151;27543;-75
2023/03/07 10:59:36;;;;;;;5.00;4.50;;;13.60;62.10;;;;;;925459;151;27361;-75
2023/03/07 11:02:04;;;;;;;5.08;4.30;;;13.60;62.30;;;;;;922865;151;27368;-75
2023/03/07 11:04:29;;;;;;;6.43;4.97;;;13.60;62.70;;;;;;923055;151;27392;-75
2023/03/07 11:06:59;;;;;;;5.70;5.20;;;13.70;62.50;;;;;;922101;151;27431;-75
2023/03/07 11:09:31;;;;;;;5.40;4.63;;;13.70;62.10;;;;;;924931;151;27408;-75
2023/03/07 11:11:58;;;;;;;5.45;4.95;;;13.80;62.10;;;;;;926368;151;27350;-75
2023/03/07 11:14:24;;;;;;;5.87;4.87;;;13.80;62.10;;;;;;925265;151;27400;-75
2023/03/07 11:16:51;;;;;;;5.20;4.70;;;13.90;61.70;;;;;;924941;151;27387;-75
2023/03/07 11:19:23;;;;;;;6.10;5.10;;;13.90;61.10;;;;;;926232;151;27417;-75
2023/03/07 11:21:53;;;;;;;6.33;4.97;;;14.00;60.30;;;;;;924534;151;27382;-75
2023/03/07 11:24:28;;;;;;;6.03;4.90;;;14.00;60.30;;;;;;925856;151;27389;-75
2023/03/07 11:26:57;;;;;;;6.60;5.33;;;14.00;60.80;;;;;;926002;151;27398;-75
2023/03/07 11:29:24;;;;;;;7.27;4.70;;;14.00;60.80;;;;;;925322;151;27304;-75
2023/03/07 11:31:56;;;;;;;6.57;5.10;;;14.00;60.20;;;;;;923820;150;27532;-75
2023/03/07 11:34:54;;;;;;;5.05;4.55;;;14.00;60.20;;;;;;926389;151;27386;-75
2023/03/07 11:37:38;;;;;;;5.40;4.90;;;14.00;60.60;;;;;;924419;151;27549;-75
2023/03/07 11:40:05;;;;;;;4.87;4.47;;;14.00;60.50;;;;;;924460;151;27398;-75
2023/03/07 11:42:34;;;;;;;6.87;4.90;;;14.00;59.20;;;;;;924853;151;27368;-75
2023/03/07 11:45:19;;;;;;;5.20;4.70;;;14.00;59.10;;;;;;908053;153;27409;-74
2023/03/07 11:47:51;;;;;;;5.20;4.67;;;13.90;59.60;;;;;;908516;153;27448;-75
2023/03/07 11:50:21;;;;;;;6.13;4.50;;;13.90;59.00;;;;;;908857;153;27815;-75
2023/03/07 11:52:53;;;;;;;4.83;4.43;;;13.90;59.00;;;;;;926159;151;27347;-75
2023/03/07 11:55:26;;;;;;;5.87;4.60;;;13.90;59.00;;;;;;929536;150;27398;-75
2023/03/07 11:58:11;;;;;;;5.57;5.07;;;13.80;59.10;;;;;;925505;151;27519;-73
2023/03/07 12:00:56;;;;;;;4.50;4.10;;;13.80;58.90;;;;;;924317;151;28051;-75
2023/03/07 12:03:34;;;;;;;6.47;4.30;;;13.80;59.60;;;;;;910950;153;27339;-75
2023/03/07 12:06:12;;;;;;;5.33;4.83;;;13.80;58.90;;;;;;908469;153;27363;-74
2023/03/07 12:08:54;;;;;;;4.87;4.37;;;13.80;57.70;;;;;;912075;153;27550;-75
2023/03/07 12:11:26;;;;;;;5.20;4.53;;;13.70;58.70;;;;;;909452;153;27374;-75
2023/03/07 12:13:55;;;;;;;4.70;4.30;;;13.70;58.70;;;;;;924560;151;27413;-75
2023/03/07 12:16:40;;;;;;;5.63;4.77;;;13.70;58.90;;;;;;918637;153;27358;-75
2023/03/07 12:19:15;;;;;;;6.72;4.25;;;13.70;58.30;;;;;;924655;151;27500;-75
2023/03/07 12:22:00;;;;;;;7.73;3.97;;;13.60;58.30;;;;;;916842;153;27384;-75
2023/03/07 12:24:29;;;;;;;4.70;4.30;;;13.60;58.60;;;;;;897014;157;27351;-74
2023/03/07 12:27:10;;;;;;;6.10;4.60;;;13.60;58.20;;;;;;881290;157;27537;-74
2023/03/07 12:29:42;;;;;;;5.17;4.67;;;13.50;58.00;;;;;;905475;153;27783;-75
2023/03/07 12:32:14;;;;;;;5.15;4.65;;;13.50;58.10;;;;;;926917;153;27451;-74
2023/03/07 12:34:44;;;;;;;5.97;4.43;;;13.40;57.60;;;;;;927158;153;27418;-75
2023/03/07 12:37:16;;;;;;;6.20;4.77;;;13.30;58.40;;;;;;924362;153;27403;-75
2023/03/07 12:39:49;;;;;;;5.70;4.87;;;13.30;58.60;;;;;;927104;150;27321;-74
2023/03/07 12:42:46;;;;;;;4.90;4.50;;;13.20;58.50;;;;;;924218;151;27419;-74
2023/03/07 12:45:12;;;;;;;5.43;4.93;;;13.10;58.50;;;;;;925994;151;27419;-74
2023/03/07 12:47:48;;;;;;;5.53;5.03;;;13.00;58.00;;;;;;923813;151;27797;-74
2023/03/07 12:50:17;;;;;;;5.23;4.77;;;12.90;58.40;;;;;;922360;151;27445;-74